sensor_id;sensor_type;location;lat;lon;timestamp;P1;durP1;ratioP1;P2;durP2;ratioP2
56307;SDS011;42217;50.422;7.210;2023-02-10T00:02:02;21.37;;;11.43;;
56307;SDS011;42217;50.422;7.210;2023-02-10T00:04:28;23.17;;;11.60;;
56307;SDS011;42217;50.422;7.210;2023-02-10T00:06:54;21.77;;;11.70;;
56307;SDS011;42217;50.422;7.210;2023-02-10T00:09:19;16.17;;;10.53;;
56307;SDS011;42217;50.422;7.210;2023-02-10T00:11:45;19.63;;;10.73;;
56307;SDS011;42217;50.422;7.210;2023-02-10T00:14:24;17.93;;;10.93;;
56307;SDS011;42217;50.422;7.210;2023-02-10T00:16:51;26.83;;;13.23;;
56307;SDS011;42217;50.422;7.210;2023-02-10T00:19:18;22.97;;;13.37;;
56307;SDS011;42217;50.422;7.210;2023-02-10T00:21:45;29.77;;;14.37;;
56307;SDS011;42217;50.422;7.210;2023-02-10T00:24:10;43.57;;;20.23;;
56307;SDS011;42217;50.422;7.210;2023-02-10T00:26:36;35.60;;;19.80;;
56307;SDS011;42217;50.422;7.210;2023-02-10T00:29:02;28.77;;;15.30;;
56307;SDS011;42217;50.422;7.210;2023-02-10T00:31:28;22.07;;;13.17;;
56307;SDS011;42217;50.422;7.210;2023-02-10T00:33:54;21.00;;;13.87;;
56307;SDS011;42217;50.422;7.210;2023-02-10T00:36:20;25.90;;;12.47;;
56307;SDS011;42217;50.422;7.210;2023-02-10T00:38:47;17.97;;;10.37;;
56307;SDS011;42217;50.422;7.210;2023-02-10T00:41:16;22.27;;;11.77;;
56307;SDS011;42217;50.422;7.210;2023-02-10T00:43:44;22.87;;;12.47;;
56307;SDS011;42217;50.422;7.210;2023-02-10T00:46:14;20.10;;;11.10;;
56307;SDS011;42217;50.422;7.210;2023-02-10T00:48:41;19.23;;;11.43;;
56307;SDS011;42217;50.422;7.210;2023-02-10T00:51:07;18.67;;;11.00;;
56307;SDS011;42217;50.422;7.210;2023-02-10T00:53:33;20.43;;;11.37;;
56307;SDS011;42217;50.422;7.210;2023-02-10T00:56:00;20.33;;;11.37;;
56307;SDS011;42217;50.422;7.210;2023-02-10T00:58:26;18.20;;;11.23;;
56307;SDS011;42217;50.422;7.210;2023-02-10T01:00:53;19.60;;;11.53;;
56307;SDS011;42217;50.422;7.210;2023-02-10T01:03:19;24.07;;;11.80;;
56307;SDS011;42217;50.422;7.210;2023-02-10T01:05:46;22.70;;;11.40;;
56307;SDS011;42217;50.422;7.210;2023-02-10T01:08:14;22.80;;;13.50;;
56307;SDS011;42217;50.422;7.210;2023-02-10T01:10:41;18.97;;;12.33;;
56307;SDS011;42217;50.422;7.210;2023-02-10T01:13:07;22.73;;;12.13;;
56307;SDS011;42217;50.422;7.210;2023-02-10T01:15:34;22.27;;;12.13;;
56307;SDS011;42217;50.422;7.210;2023-02-10T01:17:59;19.27;;;13.30;;
56307;SDS011;42217;50.422;7.210;2023-02-10T01:20:27;25.47;;;12.20;;
56307;SDS011;42217;50.422;7.210;2023-02-10T01:22:54;18.30;;;11.97;;
56307;SDS011;42217;50.422;7.210;2023-02-10T01:25:20;27.40;;;13.60;;
56307;SDS011;42217;50.422;7.210;2023-02-10T01:27:46;19.80;;;12.30;;
56307;SDS011;42217;50.422;7.210;2023-02-10T01:30:13;22.40;;;12.83;;
56307;SDS011;42217;50.422;7.210;2023-02-10T01:32:38;18.17;;;10.80;;
56307;SDS011;42217;50.422;7.210;2023-02-10T01:35:04;24.97;;;12.33;;
56307;SDS011;42217;50.422;7.210;2023-02-10T01:37:30;21.77;;;12.90;;
56307;SDS011;42217;50.422;7.210;2023-02-10T01:39:56;28.80;;;12.57;;
56307;SDS011;42217;50.422;7.210;2023-02-10T01:42:21;20.53;;;12.37;;
56307;SDS011;42217;50.422;7.210;2023-02-10T01:47:13;23.37;;;11.90;;
56307;SDS011;42217;50.422;7.210;2023-02-10T01:49:40;26.20;;;12.57;;
56307;SDS011;42217;50.422;7.210;2023-02-10T01:52:18;19.50;;;11.13;;
56307;SDS011;42217;50.422;7.210;2023-02-10T01:54:48;19.87;;;10.83;;
56307;SDS011;42217;50.422;7.210;2023-02-10T01:57:19;16.58;;;11.13;;
56307;SDS011;42217;50.422;7.210;2023-02-10T01:59:45;25.07;;;13.93;;
56307;SDS011;42217;50.422;7.210;2023-02-10T02:02:12;19.47;;;12.57;;
56307;SDS011;42217;50.422;7.210;2023-02-10T02:07:12;21.63;;;11.43;;
56307;SDS011;42217;50.422;7.210;2023-02-10T02:09:38;23.73;;;13.20;;
56307;SDS011;42217;50.422;7.210;2023-02-10T02:15:14;21.43;;;12.73;;
56307;SDS011;42217;50.422;7.210;2023-02-10T02:18:02;24.13;;;11.67;;
56307;SDS011;42217;50.422;7.210;2023-02-10T02:20:56;25.00;;;12.70;;
56307;SDS011;42217;50.422;7.210;2023-02-10T02:23:28;25.83;;;12.63;;
56307;SDS011;42217;50.422;7.210;2023-02-10T02:39:29;24.10;;;12.37;;
56307;SDS011;42217;50.422;7.210;2023-02-10T02:44:45;22.77;;;12.47;;
56307;SDS011;42217;50.422;7.210;2023-02-10T02:50:05;32.67;;;13.90;;
56307;SDS011;42217;50.422;7.210;2023-02-10T02:58:20;40.37;;;16.67;;
56307;SDS011;42217;50.422;7.210;2023-02-10T03:00:50;40.40;;;19.43;;
56307;SDS011;42217;50.422;7.210;2023-02-10T03:03:17;33.63;;;17.37;;
56307;SDS011;42217;50.422;7.210;2023-02-10T03:05:44;45.17;;;18.63;;
56307;SDS011;42217;50.422;7.210;2023-02-10T03:08:09;56.53;;;22.87;;
56307;SDS011;42217;50.422;7.210;2023-02-10T03:10:35;53.53;;;23.20;;
56307;SDS011;42217;50.422;7.210;2023-02-10T03:13:01;48.10;;;20.00;;
56307;SDS011;42217;50.422;7.210;2023-02-10T03:15:26;51.93;;;21.40;;
56307;SDS011;42217;50.422;7.210;2023-02-10T03:17:52;41.80;;;23.93;;
56307;SDS011;42217;50.422;7.210;2023-02-10T03:20:18;60.10;;;22.63;;
56307;SDS011;42217;50.422;7.210;2023-02-10T03:22:43;45.07;;;19.47;;
56307;SDS011;42217;50.422;7.210;2023-02-10T03:25:09;60.20;;;23.00;;
56307;SDS011;42217;50.422;7.210;2023-02-10T03:27:35;46.60;;;19.23;;
56307;SDS011;42217;50.422;7.210;2023-02-10T03:30:01;46.60;;;18.60;;
56307;SDS011;42217;50.422;7.210;2023-02-10T03:32:26;41.03;;;20.60;;
56307;SDS011;42217;50.422;7.210;2023-02-10T03:34:52;38.57;;;19.10;;
56307;SDS011;42217;50.422;7.210;2023-02-10T03:37:18;43.57;;;19.27;;
56307;SDS011;42217;50.422;7.210;2023-02-10T03:39:43;36.83;;;18.40;;
56307;SDS011;42217;50.422;7.210;2023-02-10T03:42:09;38.33;;;17.47;;
56307;SDS011;42217;50.422;7.210;2023-02-10T03:44:36;40.77;;;21.37;;
56307;SDS011;42217;50.422;7.210;2023-02-10T03:47:02;37.57;;;19.80;;
56307;SDS011;42217;50.422;7.210;2023-02-10T03:49:27;46.60;;;19.97;;
56307;SDS011;42217;50.422;7.210;2023-02-10T03:51:53;45.33;;;19.40;;
56307;SDS011;42217;50.422;7.210;2023-02-10T03:54:19;46.00;;;18.80;;
56307;SDS011;42217;50.422;7.210;2023-02-10T03:56:44;32.97;;;17.30;;
56307;SDS011;42217;50.422;7.210;2023-02-10T03:59:10;30.30;;;16.17;;
56307;SDS011;42217;50.422;7.210;2023-02-10T04:01:36;39.30;;;16.50;;
56307;SDS011;42217;50.422;7.210;2023-02-10T04:04:01;42.83;;;18.00;;
56307;SDS011;42217;50.422;7.210;2023-02-10T04:06:27;36.33;;;17.23;;
56307;SDS011;42217;50.422;7.210;2023-02-10T04:08:53;34.33;;;15.87;;
56307;SDS011;42217;50.422;7.210;2023-02-10T04:11:19;40.43;;;16.57;;
56307;SDS011;42217;50.422;7.210;2023-02-10T04:13:44;38.30;;;17.33;;
56307;SDS011;42217;50.422;7.210;2023-02-10T04:16:11;35.97;;;16.57;;
56307;SDS011;42217;50.422;7.210;2023-02-10T04:18:39;36.93;;;18.17;;
56307;SDS011;42217;50.422;7.210;2023-02-10T04:21:06;32.73;;;17.93;;
56307;SDS011;42217;50.422;7.210;2023-02-10T04:23:36;33.93;;;14.77;;
56307;SDS011;42217;50.422;7.210;2023-02-10T04:26:02;36.23;;;18.43;;
56307;SDS011;42217;50.422;7.210;2023-02-10T04:28:29;36.47;;;17.00;;
56307;SDS011;42217;50.422;7.210;2023-02-10T04:30:55;32.43;;;17.67;;
56307;SDS011;42217;50.422;7.210;2023-02-10T04:33:23;33.53;;;17.17;;
56307;SDS011;42217;50.422;7.210;2023-02-10T04:35:52;33.50;;;16.67;;
56307;SDS011;42217;50.422;7.210;2023-02-10T04:38:19;41.67;;;17.83;;
56307;SDS011;42217;50.422;7.210;2023-02-10T04:40:45;36.07;;;14.43;;
56307;SDS011;42217;50.422;7.210;2023-02-10T04:43:11;28.67;;;13.43;;
56307;SDS011;42217;50.422;7.210;2023-02-10T04:45:38;30.27;;;14.93;;
56307;SDS011;42217;50.422;7.210;2023-02-10T04:48:04;31.93;;;15.10;;
56307;SDS011;42217;50.422;7.210;2023-02-10T04:50:30;25.33;;;14.60;;
56307;SDS011;42217;50.422;7.210;2023-02-10T04:52:56;30.73;;;15.30;;
56307;SDS011;42217;50.422;7.210;2023-02-10T04:55:21;30.60;;;13.03;;
56307;SDS011;42217;50.422;7.210;2023-02-10T04:57:47;22.83;;;11.43;;
56307;SDS011;42217;50.422;7.210;2023-02-10T05:00:13;22.87;;;11.87;;
56307;SDS011;42217;50.422;7.210;2023-02-10T05:02:40;35.87;;;16.77;;
56307;SDS011;42217;50.422;7.210;2023-02-10T05:05:06;23.93;;;12.23;;
56307;SDS011;42217;50.422;7.210;2023-02-10T05:07:34;30.67;;;13.57;;
56307;SDS011;42217;50.422;7.210;2023-02-10T05:10:00;32.27;;;15.07;;
56307;SDS011;42217;50.422;7.210;2023-02-10T05:12:26;24.57;;;13.73;;
56307;SDS011;42217;50.422;7.210;2023-02-10T05:14:51;34.10;;;14.40;;
56307;SDS011;42217;50.422;7.210;2023-02-10T05:17:17;40.57;;;14.73;;
56307;SDS011;42217;50.422;7.210;2023-02-10T05:19:43;28.00;;;15.53;;
56307;SDS011;42217;50.422;7.210;2023-02-10T05:22:09;30.30;;;16.80;;
56307;SDS011;42217;50.422;7.210;2023-02-10T05:24:35;34.27;;;16.63;;
56307;SDS011;42217;50.422;7.210;2023-02-10T05:27:00;33.70;;;15.63;;
56307;SDS011;42217;50.422;7.210;2023-02-10T05:29:26;25.10;;;13.67;;
56307;SDS011;42217;50.422;7.210;2023-02-10T05:31:52;32.20;;;14.57;;
56307;SDS011;42217;50.422;7.210;2023-02-10T05:34:17;41.13;;;16.07;;
56307;SDS011;42217;50.422;7.210;2023-02-10T05:36:43;61.37;;;27.37;;
56307;SDS011;42217;50.422;7.210;2023-02-10T05:39:09;44.10;;;21.63;;
56307;SDS011;42217;50.422;7.210;2023-02-10T05:41:58;32.43;;;15.37;;
56307;SDS011;42217;50.422;7.210;2023-02-10T05:44:27;31.70;;;14.77;;
56307;SDS011;42217;50.422;7.210;2023-02-10T05:47:01;34.13;;;14.93;;
56307;SDS011;42217;50.422;7.210;2023-02-10T05:49:31;67.33;;;32.83;;
56307;SDS011;42217;50.422;7.210;2023-02-10T05:51:58;38.80;;;18.43;;
56307;SDS011;42217;50.422;7.210;2023-02-10T05:54:28;35.30;;;14.70;;
56307;SDS011;42217;50.422;7.210;2023-02-10T05:56:57;32.70;;;14.40;;
56307;SDS011;42217;50.422;7.210;2023-02-10T05:59:25;28.63;;;14.23;;
56307;SDS011;42217;50.422;7.210;2023-02-10T06:01:54;46.73;;;20.87;;
56307;SDS011;42217;50.422;7.210;2023-02-10T06:04:22;56.70;;;27.40;;
56307;SDS011;42217;50.422;7.210;2023-02-10T06:06:48;35.07;;;20.43;;
56307;SDS011;42217;50.422;7.210;2023-02-10T06:09:14;43.00;;;17.83;;
56307;SDS011;42217;50.422;7.210;2023-02-10T06:11:40;29.83;;;17.30;;
56307;SDS011;42217;50.422;7.210;2023-02-10T06:14:06;31.03;;;15.30;;
56307;SDS011;42217;50.422;7.210;2023-02-10T06:16:33;38.83;;;17.60;;
56307;SDS011;42217;50.422;7.210;2023-02-10T06:19:00;37.00;;;18.27;;
56307;SDS011;42217;50.422;7.210;2023-02-10T06:21:26;27.40;;;14.53;;
56307;SDS011;42217;50.422;7.210;2023-02-10T06:23:52;34.80;;;14.13;;
56307;SDS011;42217;50.422;7.210;2023-02-10T06:26:18;34.53;;;17.17;;
56307;SDS011;42217;50.422;7.210;2023-02-10T06:28:44;44.70;;;20.20;;
56307;SDS011;42217;50.422;7.210;2023-02-10T06:31:10;46.40;;;22.70;;
56307;SDS011;42217;50.422;7.210;2023-02-10T06:33:38;39.03;;;19.90;;
56307;SDS011;42217;50.422;7.210;2023-02-10T06:36:05;25.60;;;13.93;;
56307;SDS011;42217;50.422;7.210;2023-02-10T06:38:33;26.90;;;12.83;;
56307;SDS011;42217;50.422;7.210;2023-02-10T06:41:04;27.57;;;12.97;;
56307;SDS011;42217;50.422;7.210;2023-02-10T06:43:55;33.60;;;14.47;;
56307;SDS011;42217;50.422;7.210;2023-02-10T06:46:21;32.00;;;14.90;;
56307;SDS011;42217;50.422;7.210;2023-02-10T06:48:47;32.53;;;15.87;;
56307;SDS011;42217;50.422;7.210;2023-02-10T06:51:12;27.40;;;14.00;;
56307;SDS011;42217;50.422;7.210;2023-02-10T06:53:38;27.77;;;14.23;;
56307;SDS011;42217;50.422;7.210;2023-02-10T06:56:04;31.10;;;12.93;;
56307;SDS011;42217;50.422;7.210;2023-02-10T06:58:30;27.17;;;13.93;;
56307;SDS011;42217;50.422;7.210;2023-02-10T07:00:56;24.30;;;11.47;;
56307;SDS011;42217;50.422;7.210;2023-02-10T07:03:24;38.83;;;13.20;;
56307;SDS011;42217;50.422;7.210;2023-02-10T07:05:50;27.47;;;15.17;;
56307;SDS011;42217;50.422;7.210;2023-02-10T07:08:16;32.17;;;14.77;;
56307;SDS011;42217;50.422;7.210;2023-02-10T07:10:42;31.90;;;15.63;;
56307;SDS011;42217;50.422;7.210;2023-02-10T07:13:07;37.07;;;16.57;;
56307;SDS011;42217;50.422;7.210;2023-02-10T07:15:33;27.50;;;14.03;;
56307;SDS011;42217;50.422;7.210;2023-02-10T07:17:59;32.43;;;14.50;;
56307;SDS011;42217;50.422;7.210;2023-02-10T07:20:25;33.33;;;15.97;;
56307;SDS011;42217;50.422;7.210;2023-02-10T07:22:51;30.50;;;15.43;;
56307;SDS011;42217;50.422;7.210;2023-02-10T07:25:17;33.67;;;15.63;;
56307;SDS011;42217;50.422;7.210;2023-02-10T07:27:43;25.30;;;13.40;;
56307;SDS011;42217;50.422;7.210;2023-02-10T07:30:09;29.97;;;15.87;;
56307;SDS011;42217;50.422;7.210;2023-02-10T07:32:36;34.07;;;15.90;;
56307;SDS011;42217;50.422;7.210;2023-02-10T07:35:02;31.37;;;12.90;;
56307;SDS011;42217;50.422;7.210;2023-02-10T07:37:28;30.13;;;15.00;;
56307;SDS011;42217;50.422;7.210;2023-02-10T07:39:54;34.97;;;15.40;;
56307;SDS011;42217;50.422;7.210;2023-02-10T07:42:20;38.53;;;16.60;;
56307;SDS011;42217;50.422;7.210;2023-02-10T07:44:46;30.67;;;16.13;;
56307;SDS011;42217;50.422;7.210;2023-02-10T07:47:11;34.73;;;16.00;;
56307;SDS011;42217;50.422;7.210;2023-02-10T07:49:37;36.23;;;17.43;;
56307;SDS011;42217;50.422;7.210;2023-02-10T07:52:03;35.17;;;14.90;;
56307;SDS011;42217;50.422;7.210;2023-02-10T07:54:28;34.47;;;16.97;;
56307;SDS011;42217;50.422;7.210;2023-02-10T07:56:55;34.13;;;16.07;;
56307;SDS011;42217;50.422;7.210;2023-02-10T07:59:21;36.43;;;16.33;;
56307;SDS011;42217;50.422;7.210;2023-02-10T08:01:47;31.70;;;14.53;;
56307;SDS011;42217;50.422;7.210;2023-02-10T08:04:13;28.70;;;15.43;;
56307;SDS011;42217;50.422;7.210;2023-02-10T08:06:39;41.70;;;16.47;;
56307;SDS011;42217;50.422;7.210;2023-02-10T08:09:05;30.90;;;12.33;;
56307;SDS011;42217;50.422;7.210;2023-02-10T08:11:32;25.37;;;11.93;;
56307;SDS011;42217;50.422;7.210;2023-02-10T08:13:58;31.43;;;12.30;;
56307;SDS011;42217;50.422;7.210;2023-02-10T08:16:25;25.80;;;13.07;;
56307;SDS011;42217;50.422;7.210;2023-02-10T08:18:51;20.47;;;11.17;;
56307;SDS011;42217;50.422;7.210;2023-02-10T08:21:17;23.50;;;10.77;;
56307;SDS011;42217;50.422;7.210;2023-02-10T08:23:42;21.80;;;10.77;;
56307;SDS011;42217;50.422;7.210;2023-02-10T08:26:10;29.13;;;11.57;;
56307;SDS011;42217;50.422;7.210;2023-02-10T08:28:37;28.23;;;13.47;;
56307;SDS011;42217;50.422;7.210;2023-02-10T08:31:04;25.20;;;14.00;;
56307;SDS011;42217;50.422;7.210;2023-02-10T08:33:35;30.10;;;11.93;;
56307;SDS011;42217;50.422;7.210;2023-02-10T08:36:03;24.20;;;9.87;;
56307;SDS011;42217;50.422;7.210;2023-02-10T08:38:34;20.03;;;9.93;;
56307;SDS011;42217;50.422;7.210;2023-02-10T08:41:03;20.33;;;10.20;;
56307;SDS011;42217;50.422;7.210;2023-02-10T08:43:29;24.27;;;11.60;;
56307;SDS011;42217;50.422;7.210;2023-02-10T08:45:58;21.03;;;11.43;;
56307;SDS011;42217;50.422;7.210;2023-02-10T08:48:25;18.57;;;10.33;;
56307;SDS011;42217;50.422;7.210;2023-02-10T08:50:52;18.37;;;11.33;;
56307;SDS011;42217;50.422;7.210;2023-02-10T08:53:19;20.93;;;11.13;;
56307;SDS011;42217;50.422;7.210;2023-02-10T08:55:54;24.20;;;13.03;;
56307;SDS011;42217;50.422;7.210;2023-02-10T08:58:23;20.77;;;11.20;;
56307;SDS011;42217;50.422;7.210;2023-02-10T09:00:49;26.83;;;12.57;;
56307;SDS011;42217;50.422;7.210;2023-02-10T09:03:15;21.30;;;11.80;;
56307;SDS011;42217;50.422;7.210;2023-02-10T09:05:41;28.30;;;11.00;;
56307;SDS011;42217;50.422;7.210;2023-02-10T09:08:08;22.70;;;10.63;;
56307;SDS011;42217;50.422;7.210;2023-02-10T09:10:34;32.13;;;12.97;;
56307;SDS011;42217;50.422;7.210;2023-02-10T09:13:00;25.70;;;11.03;;
56307;SDS011;42217;50.422;7.210;2023-02-10T09:15:26;19.20;;;8.80;;
56307;SDS011;42217;50.422;7.210;2023-02-10T09:17:51;22.73;;;10.80;;
56307;SDS011;42217;50.422;7.210;2023-02-10T09:20:17;21.23;;;9.90;;
56307;SDS011;42217;50.422;7.210;2023-02-10T09:22:43;20.77;;;11.07;;
56307;SDS011;42217;50.422;7.210;2023-02-10T09:25:11;21.00;;;10.57;;
56307;SDS011;42217;50.422;7.210;2023-02-10T09:27:36;22.23;;;11.20;;
56307;SDS011;42217;50.422;7.210;2023-02-10T09:30:05;18.37;;;10.27;;
56307;SDS011;42217;50.422;7.210;2023-02-10T09:32:31;21.60;;;10.50;;
56307;SDS011;42217;50.422;7.210;2023-02-10T09:34:56;21.50;;;10.60;;
56307;SDS011;42217;50.422;7.210;2023-02-10T09:37:22;18.40;;;10.33;;
56307;SDS011;42217;50.422;7.210;2023-02-10T09:39:48;19.60;;;11.63;;
56307;SDS011;42217;50.422;7.210;2023-02-10T09:42:29;21.20;;;10.20;;
56307;SDS011;42217;50.422;7.210;2023-02-10T09:45:15;19.83;;;9.70;;
56307;SDS011;42217;50.422;7.210;2023-02-10T09:53:48;13.07;;;8.13;;
56307;SDS011;42217;50.422;7.210;2023-02-10T09:56:17;21.63;;;9.43;;
56307;SDS011;42217;50.422;7.210;2023-02-10T09:58:52;21.00;;;9.03;;
56307;SDS011;42217;50.422;7.210;2023-02-10T10:01:24;13.37;;;7.40;;
56307;SDS011;42217;50.422;7.210;2023-02-10T10:04:15;15.07;;;7.43;;
56307;SDS011;42217;50.422;7.210;2023-02-10T10:06:46;16.40;;;8.23;;
56307;SDS011;42217;50.422;7.210;2023-02-10T10:11:56;14.17;;;8.97;;
56307;SDS011;42217;50.422;7.210;2023-02-10T10:14:28;21.37;;;9.43;;
56307;SDS011;42217;50.422;7.210;2023-02-10T10:26:13;17.57;;;8.23;;
56307;SDS011;42217;50.422;7.210;2023-02-10T10:31:30;10.60;;;7.90;;
56307;SDS011;42217;50.422;7.210;2023-02-10T10:34:02;17.33;;;8.70;;
56307;SDS011;42217;50.422;7.210;2023-02-10T10:36:38;10.17;;;6.17;;
56307;SDS011;42217;50.422;7.210;2023-02-10T10:41:56;13.43;;;6.60;;
56307;SDS011;42217;50.422;7.210;2023-02-10T10:44:25;15.33;;;7.83;;
56307;SDS011;42217;50.422;7.210;2023-02-10T10:47:05;13.00;;;7.13;;
56307;SDS011;42217;50.422;7.210;2023-02-10T10:49:58;12.15;;;6.88;;
56307;SDS011;42217;50.422;7.210;2023-02-10T10:57:23;13.70;;;8.03;;
56307;SDS011;42217;50.422;7.210;2023-02-10T10:59:54;15.17;;;8.80;;
56307;SDS011;42217;50.422;7.210;2023-02-10T11:02:22;12.80;;;6.13;;
56307;SDS011;42217;50.422;7.210;2023-02-10T11:07:49;15.73;;;6.73;;
56307;SDS011;42217;50.422;7.210;2023-02-10T11:13:16;12.63;;;6.50;;
56307;SDS011;42217;50.422;7.210;2023-02-10T11:15:44;15.73;;;8.20;;
56307;SDS011;42217;50.422;7.210;2023-02-10T11:18:18;10.47;;;6.20;;
56307;SDS011;42217;50.422;7.210;2023-02-10T11:20:53;14.43;;;7.13;;
56307;SDS011;42217;50.422;7.210;2023-02-10T11:23:28;12.13;;;7.70;;
56307;SDS011;42217;50.422;7.210;2023-02-10T11:28:29;12.23;;;7.77;;
56307;SDS011;42217;50.422;7.210;2023-02-10T11:30:58;12.50;;;7.17;;
56307;SDS011;42217;50.422;7.210;2023-02-10T11:33:29;12.40;;;7.73;;
56307;SDS011;42217;50.422;7.210;2023-02-10T11:35:59;24.13;;;9.17;;
56307;SDS011;42217;50.422;7.210;2023-02-10T11:38:29;13.83;;;7.43;;
56307;SDS011;42217;50.422;7.210;2023-02-10T11:40:56;11.17;;;7.17;;
56307;SDS011;42217;50.422;7.210;2023-02-10T11:43:29;14.77;;;6.63;;
56307;SDS011;42217;50.422;7.210;2023-02-10T11:46:02;17.45;;;10.02;;
56307;SDS011;42217;50.422;7.210;2023-02-10T11:48:29;14.80;;;7.78;;
56307;SDS011;42217;50.422;7.210;2023-02-10T11:51:00;15.53;;;8.43;;
56307;SDS011;42217;50.422;7.210;2023-02-10T11:53:28;20.80;;;7.97;;
56307;SDS011;42217;50.422;7.210;2023-02-10T11:56:03;19.97;;;8.13;;
56307;SDS011;42217;50.422;7.210;2023-02-10T12:01:27;14.03;;;8.10;;
56307;SDS011;42217;50.422;7.210;2023-02-10T12:04:19;12.83;;;7.73;;
56307;SDS011;42217;50.422;7.210;2023-02-10T12:10:47;13.07;;;7.43;;
56307;SDS011;42217;50.422;7.210;2023-02-10T12:13:14;11.90;;;7.97;;
56307;SDS011;42217;50.422;7.210;2023-02-10T12:23:55;15.53;;;8.67;;
56307;SDS011;42217;50.422;7.210;2023-02-10T12:26:47;15.17;;;8.07;;
56307;SDS011;42217;50.422;7.210;2023-02-10T12:29:35;15.63;;;8.13;;
56307;SDS011;42217;50.422;7.210;2023-02-10T12:35:28;12.73;;;7.17;;
56307;SDS011;42217;50.422;7.210;2023-02-10T12:40:51;10.00;;;6.53;;
56307;SDS011;42217;50.422;7.210;2023-02-10T12:51:58;9.60;;;6.30;;
56307;SDS011;42217;50.422;7.210;2023-02-10T12:57:19;12.67;;;7.00;;
56307;SDS011;42217;50.422;7.210;2023-02-10T13:00:04;10.80;;;6.07;;
56307;SDS011;42217;50.422;7.210;2023-02-10T13:02:52;17.90;;;6.93;;
56307;SDS011;42217;50.422;7.210;2023-02-10T13:05:42;14.00;;;6.27;;
56307;SDS011;42217;50.422;7.210;2023-02-10T13:08:17;17.40;;;7.57;;
56307;SDS011;42217;50.422;7.210;2023-02-10T13:10:54;13.13;;;6.87;;
56307;SDS011;42217;50.422;7.210;2023-02-10T13:13:28;13.50;;;6.97;;
56307;SDS011;42217;50.422;7.210;2023-02-10T13:15:58;12.83;;;6.83;;
56307;SDS011;42217;50.422;7.210;2023-02-10T13:18:28;12.70;;;8.15;;
56307;SDS011;42217;50.422;7.210;2023-02-10T13:21:04;13.90;;;8.03;;
56307;SDS011;42217;50.422;7.210;2023-02-10T13:23:40;13.10;;;6.70;;
56307;SDS011;42217;50.422;7.210;2023-02-10T13:29:24;15.30;;;7.47;;
56307;SDS011;42217;50.422;7.210;2023-02-10T13:35:10;9.93;;;7.00;;
56307;SDS011;42217;50.422;7.210;2023-02-10T13:37:42;11.97;;;6.90;;
56307;SDS011;42217;50.422;7.210;2023-02-10T13:40:23;12.20;;;8.07;;
56307;SDS011;42217;50.422;7.210;2023-02-10T13:43:01;10.43;;;6.50;;
56307;SDS011;42217;50.422;7.210;2023-02-10T13:45:29;12.80;;;7.33;;
56307;SDS011;42217;50.422;7.210;2023-02-10T13:48:07;12.20;;;7.40;;
56307;SDS011;42217;50.422;7.210;2023-02-10T13:50:54;9.97;;;5.67;;
56307;SDS011;42217;50.422;7.210;2023-02-10T14:06:41;11.53;;;6.87;;
56307;SDS011;42217;50.422;7.210;2023-02-10T14:09:22;11.87;;;7.10;;
56307;SDS011;42217;50.422;7.210;2023-02-10T14:12:03;8.47;;;6.83;;
56307;SDS011;42217;50.422;7.210;2023-02-10T14:19:41;13.87;;;7.93;;
56307;SDS011;42217;50.422;7.210;2023-02-10T14:22:25;18.03;;;9.97;;
56307;SDS011;42217;50.422;7.210;2023-02-10T14:25:00;14.63;;;8.80;;
56307;SDS011;42217;50.422;7.210;2023-02-10T14:30:18;14.50;;;7.60;;
56307;SDS011;42217;50.422;7.210;2023-02-10T14:32:45;11.50;;;7.93;;
56307;SDS011;42217;50.422;7.210;2023-02-10T14:35:15;16.07;;;8.07;;
56307;SDS011;42217;50.422;7.210;2023-02-10T14:40:18;13.25;;;8.45;;
56307;SDS011;42217;50.422;7.210;2023-02-10T14:42:45;15.40;;;8.27;;
56307;SDS011;42217;50.422;7.210;2023-02-10T14:45:18;10.93;;;8.53;;
56307;SDS011;42217;50.422;7.210;2023-02-10T14:47:55;10.37;;;7.17;;
56307;SDS011;42217;50.422;7.210;2023-02-10T14:50:26;12.13;;;8.93;;
56307;SDS011;42217;50.422;7.210;2023-02-10T14:52:54;11.60;;;8.20;;
56307;SDS011;42217;50.422;7.210;2023-02-10T14:55:21;15.43;;;7.77;;
56307;SDS011;42217;50.422;7.210;2023-02-10T14:57:47;15.20;;;8.30;;
56307;SDS011;42217;50.422;7.210;2023-02-10T15:00:13;12.60;;;7.60;;
56307;SDS011;42217;50.422;7.210;2023-02-10T15:02:39;16.37;;;7.93;;
56307;SDS011;42217;50.422;7.210;2023-02-10T15:05:14;11.73;;;8.60;;
56307;SDS011;42217;50.422;7.210;2023-02-10T15:07:44;14.03;;;7.33;;
56307;SDS011;42217;50.422;7.210;2023-02-10T15:12:51;15.73;;;9.50;;
56307;SDS011;42217;50.422;7.210;2023-02-10T15:15:29;15.63;;;8.73;;
56307;SDS011;42217;50.422;7.210;2023-02-10T15:18:00;14.43;;;6.90;;
56307;SDS011;42217;50.422;7.210;2023-02-10T15:20:38;15.17;;;7.33;;
56307;SDS011;42217;50.422;7.210;2023-02-10T15:25:36;11.97;;;6.93;;
56307;SDS011;42217;50.422;7.210;2023-02-10T15:30:46;11.60;;;7.93;;
56307;SDS011;42217;50.422;7.210;2023-02-10T15:36:02;24.17;;;9.67;;
56307;SDS011;42217;50.422;7.210;2023-02-10T15:38:29;12.73;;;7.50;;
56307;SDS011;42217;50.422;7.210;2023-02-10T15:40:56;17.13;;;7.73;;
56307;SDS011;42217;50.422;7.210;2023-02-10T15:43:24;12.30;;;7.07;;
56307;SDS011;42217;50.422;7.210;2023-02-10T15:46:13;11.55;;;7.10;;
56307;SDS011;42217;50.422;7.210;2023-02-10T15:48:41;15.67;;;8.40;;
56307;SDS011;42217;50.422;7.210;2023-02-10T15:51:09;17.87;;;8.23;;
56307;SDS011;42217;50.422;7.210;2023-02-10T15:53:48;10.27;;;7.30;;
56307;SDS011;42217;50.422;7.210;2023-02-10T15:56:21;17.77;;;8.93;;
56307;SDS011;42217;50.422;7.210;2023-02-10T15:58:48;13.17;;;7.77;;
56307;SDS011;42217;50.422;7.210;2023-02-10T16:01:15;16.63;;;10.00;;
56307;SDS011;42217;50.422;7.210;2023-02-10T16:03:41;12.77;;;8.63;;
56307;SDS011;42217;50.422;7.210;2023-02-10T16:06:08;21.77;;;9.83;;
56307;SDS011;42217;50.422;7.210;2023-02-10T16:08:42;18.70;;;8.60;;
56307;SDS011;42217;50.422;7.210;2023-02-10T16:11:09;14.10;;;8.43;;
56307;SDS011;42217;50.422;7.210;2023-02-10T16:13:36;41.30;;;16.30;;
56307;SDS011;42217;50.422;7.210;2023-02-10T16:16:01;16.43;;;10.33;;
56307;SDS011;42217;50.422;7.210;2023-02-10T16:18:27;19.53;;;11.33;;
56307;SDS011;42217;50.422;7.210;2023-02-10T16:20:54;21.47;;;12.07;;
56307;SDS011;42217;50.422;7.210;2023-02-10T16:23:21;26.77;;;15.87;;
56307;SDS011;42217;50.422;7.210;2023-02-10T16:25:47;24.00;;;11.40;;
56307;SDS011;42217;50.422;7.210;2023-02-10T16:28:17;35.03;;;17.87;;
56307;SDS011;42217;50.422;7.210;2023-02-10T16:30:43;26.77;;;13.57;;
56307;SDS011;42217;50.422;7.210;2023-02-10T16:33:09;33.23;;;16.57;;
56307;SDS011;42217;50.422;7.210;2023-02-10T16:35:35;37.97;;;16.57;;
56307;SDS011;42217;50.422;7.210;2023-02-10T16:38:01;35.37;;;14.67;;
56307;SDS011;42217;50.422;7.210;2023-02-10T16:40:29;30.93;;;14.30;;
56307;SDS011;42217;50.422;7.210;2023-02-10T16:42:58;35.57;;;16.20;;
56307;SDS011;42217;50.422;7.210;2023-02-10T16:45:25;35.00;;;16.80;;
56307;SDS011;42217;50.422;7.210;2023-02-10T16:47:52;35.20;;;15.83;;
56307;SDS011;42217;50.422;7.210;2023-02-10T16:53:04;36.53;;;15.83;;
56307;SDS011;42217;50.422;7.210;2023-02-10T16:55:34;31.07;;;13.90;;
56307;SDS011;42217;50.422;7.210;2023-02-10T16:58:01;38.53;;;17.23;;
56307;SDS011;42217;50.422;7.210;2023-02-10T17:00:27;41.27;;;16.70;;
56307;SDS011;42217;50.422;7.210;2023-02-10T17:02:54;34.33;;;14.13;;